Alpena, South Dakota
Current Conditions -  °F | °C
As of 9:55 AM on Thursday 29 Jan 2015 (Local Time) from KHON Reporting Station
Overcast Overcast  
Wind Chill: 20°   Ceiling: 2300
Heat Index: 32°   Visibility: 10mi
Dew Point: 24°   Wind: 21mph
Humidity: 73%   Direction: 330°NNW
Pressure: 30.42"   Gusts: 26mph
Location:  44.18°N, 98.37°W
Report Text: KHON 291555Z AUTO 33018G23KT 10SM OVC023 00/M04 A3042 RMK AO2 SLP317 T00001044
Loading
Personal Weather Stations






























Interactive Weather Map New forecast layout! Learn more

10-Day Weather Forecast

Advertisements
Track Severe Weather on mobile